Meteo


Dettagli e Storico

Webcam

Webcam in aeroporto – Aggiornata ogni minuto


Osservatorio Meteorologico Cocomaro di Cona – Ferrara

NOAA IMAGE

NOAA

Windy

METAR

Aviation Digital Data Service (ADDS)

Output produced by METARs form (0922 UTC 09 February 2023)
found at http://www.aviationweather.gov/metar/data/
 
METAR text: LIPF 090855Z 00000KT CAVOK 02/M05 Q1037 RMK SKC VIS MIN 9999
Conditions at: LIPF (FERRARA (AUT) , IT) observed 0855 UTC 09 February 2023
Temperature: 2.0°C (36°F)
Dewpoint: -5.0°C (23°F) [RH = 60%]
Pressure (altimeter): 30.62 inches Hg (1037.0 mb)
Winds: calm
Visibility: 6 or more miles (10+ km)
Ceiling: ceiling and visibility are OK
Clouds: unknown
Weather: no significant weather observed at this time

METAR text: LIPE 090850Z 31005KT 260V340 9999 SCT070 01/M07 Q1037
Conditions at: LIPE (BOLOGNA/BORGO (A, IT) observed 0850 UTC 09 February 2023
Temperature: 1.0°C (34°F)
Dewpoint: -7.0°C (19°F) [RH = 55%]
Pressure (altimeter): 30.62 inches Hg (1037.0 mb)
Winds: from the NW (310 degrees) at 6 MPH (5 knots; 2.6 m/s)
Visibility: 6 or more miles (10+ km)
Ceiling: at least 12,000 feet AGL
Clouds: scattered clouds at 7000 feet AGL
Weather: no significant weather observed at this time

Forecast for: LIPE (BOLOGNA/BORGO (A, IT)
Text: TAF LIPE 090500Z 0906/1006 VRB05KT 9999 SCT040
Forecast period: 0600 to 0700 UTC 09 February 2023
Forecast type: FROM: standard forecast or significant change
Winds: variable direction winds at 6 MPH (5 knots; 2.6 m/s)
Visibility: 6 or more miles (10+ km)
Ceiling: at least 12,000 feet AGL
Clouds: scattered clouds at 4000 feet AGL
Weather: no significant weather forecast for this period
Text: BECMG 0907/0909 31010KT
Forecast period: 0700 to 1500 UTC 09 February 2023
Forecast type: BECOMING: Conditions expected to become as follows by 0900 UTC 09 February 2023
Winds: from the NW (310 degrees) at 12 MPH (10 knots; 5.1 m/s)
Visibility: 6 or more miles (10+ km)
Ceiling: at least 12,000 feet AGL
Clouds: scattered clouds at 4000 feet AGL
Weather: no significant weather forecast for this period
Text: BECMG 0915/0917 VRB05KT
Forecast period: 1500 UTC 09 February 2023 to 0600 UTC 10 February 2023
Forecast type: BECOMING: Conditions expected to become as follows by 1700 UTC 09 February 2023
Winds: variable direction winds at 6 MPH (5 knots; 2.6 m/s)
Visibility: 6 or more miles (10+ km)
Ceiling: at least 12,000 feet AGL
Clouds: scattered clouds at 4000 feet AGL
Weather: no significant weather forecast for this period

METAR text: LIPX 090850Z 09009KT CAVOK 02/M10 Q1038
Conditions at: LIPX (VILLAFRANCA(CV/M, IT) observed 0850 UTC 09 February 2023
Temperature: 2.0°C (36°F)
Dewpoint: -10.0°C (14°F) [RH = 41%]
Pressure (altimeter): 30.65 inches Hg (1038.0 mb)
Winds: from the E (90 degrees) at 10 MPH (9 knots; 4.6 m/s)
Visibility: 6 or more miles (10+ km)
Ceiling: ceiling and visibility are OK
Clouds: unknown
Weather: no significant weather observed at this time

Forecast for: AMD
Text: TAF AMD LIPX 090636Z 0906/1006 VRB05KT 9999 SCT060
Forecast period: 0600 to 1000 UTC 09 February 2023
Forecast type: FROM: standard forecast or significant change
Winds: variable direction winds at 6 MPH (5 knots; 2.6 m/s)
Visibility: 6 or more miles (10+ km)
Ceiling: at least 12,000 feet AGL
Clouds: scattered clouds at 6000 feet AGL
Weather: no significant weather forecast for this period
Text: BECMG 0910/0912 27010KT
Forecast period: 1000 UTC 09 February 2023 to 0600 UTC 10 February 2023
Forecast type: BECOMING: Conditions expected to become as follows by 1200 UTC 09 February 2023
Winds: from the W (270 degrees) at 12 MPH (10 knots; 5.1 m/s)
Visibility: 6 or more miles (10+ km)
Ceiling: at least 12,000 feet AGL
Clouds: scattered clouds at 6000 feet AGL
Weather: no significant weather forecast for this period

METAR text: LIPZ 090850Z 06013KT CAVOK 02/M08 Q1037 NOSIG
Conditions at: LIPZ (VENEZIA/TESSERA , IT) observed 0850 UTC 09 February 2023
Temperature: 2.0°C (36°F)
Dewpoint: -8.0°C (18°F) [RH = 47%]
Pressure (altimeter): 30.62 inches Hg (1037.0 mb)
Winds: from the ENE (60 degrees) at 15 MPH (13 knots; 6.7 m/s)
Visibility: 6 or more miles (10+ km)
Ceiling: ceiling and visibility are OK
Clouds: unknown
Weather: no significant weather observed at this time

Forecast for: LIPZ (VENEZIA/TESSERA , IT)
Text: TAF LIPZ 090500Z 0906/1012 05014KT CAVOK
Forecast period: 0600 to 1600 UTC 09 February 2023
Forecast type: FROM: standard forecast or significant change
Winds: from the NE (50 degrees) at 16 MPH (14 knots; 7.2 m/s)
Visibility: 6 or more miles (10+ km)
Ceiling: unknown
Clouds: missing
Weather: NSW  (no significant weather)
Text: BECMG 0916/0918 33007KT
Forecast period: 1600 UTC 09 February 2023 to 1200 UTC 10 February 2023
Forecast type: BECOMING: Conditions expected to become as follows by 1800 UTC 09 February 2023
Winds: from the NNW (330 degrees) at 8 MPH (7 knots; 3.6 m/s)
Visibility: 6 or more miles (10+ km)
Ceiling: unknown
Clouds: missing
Weather: NSW  (no significant weather)